Terminal Aerodrome Forecast
Issued by NWS

Home | Current Version | Previous Version | Text Only | Print | Product List | Glossary On
Versions: 1 2 3 4 5 6 7 8 9 10 11 12 13 14 15 16 17 18
000
FTUS43 KSGF 182300
TAFBBG
TAF
KBBG 182331Z 1900/1924 09005KT P6SM BKN100
     FM190400 11003KT 6SM BR SCT050 BKN100
     FM190600 00000KT 3SM BR SCT050 BKN100
      TEMPO 1908/1912 1SM BR BKN003
     FM191400 18005KT P6SM SCT025 BKN100
     FM191800 19010KT P6SM VCTS SCT035CB BKN100
     FM192100 22010KT 6SM -TSRA BR SCT020 OVC035CB=

USA.gov is the U.S. government's official web portal to all federal, state and local government web resources and services.